createdAt,value
2019-01-30T00:00:29.791Z,24.27
2019-01-30T00:02:05.033Z,27.17
2019-01-30T00:03:40.235Z,22.02
2019-01-30T00:05:15.115Z,25.72
2019-01-30T00:06:50.173Z,25.35
2019-01-30T00:08:24.954Z,21.85
2019-01-30T00:09:59.742Z,22.32
2019-01-30T00:11:34.524Z,20.30
2019-01-30T00:13:09.292Z,23.90
2019-01-30T00:14:44.351Z,21.40
2019-01-30T00:16:19.283Z,25.90
2019-01-30T00:17:54.055Z,28.35
2019-01-30T00:19:29.088Z,24.25
2019-01-30T00:21:03.956Z,28.12
2019-01-30T00:22:39.004Z,26.37
2019-01-30T00:24:13.780Z,23.38
2019-01-30T00:25:48.793Z,25.72
2019-01-30T00:27:23.592Z,27.00
2019-01-30T00:28:58.624Z,28.07
2019-01-30T00:30:33.579Z,26.60
2019-01-30T00:32:08.364Z,26.50
2019-01-30T00:33:43.173Z,22.17
2019-01-30T00:35:18.334Z,26.23
2019-01-30T00:36:53.114Z,25.52
2019-01-30T00:38:28.162Z,27.52
2019-01-30T00:40:02.960Z,25.43
2019-01-30T00:41:37.999Z,28.62
2019-01-30T00:43:12.872Z,24.57
2019-01-30T00:44:47.891Z,24.60
2019-01-30T00:46:22.686Z,21.45
2019-01-30T00:47:57.466Z,23.50
2019-01-30T00:49:32.242Z,23.73
2019-01-30T00:51:07.162Z,23.90
2019-01-30T00:52:42.107Z,24.60
2019-01-30T00:54:16.895Z,24.37
2019-01-30T00:55:52.197Z,28.73
2019-01-30T00:57:27.282Z,25.12
2019-01-30T00:59:02.346Z,25.27
2019-01-30T01:00:37.334Z,24.72
2019-01-30T01:02:12.588Z,27.77
2019-01-30T01:03:47.691Z,24.85
2019-01-30T01:05:23.069Z,21.68
2019-01-30T01:06:58.251Z,24.67
2019-01-30T01:08:33.513Z,26.00
2019-01-30T01:10:11.188Z,27.27
2019-01-30T01:11:46.251Z,28.90
2019-01-30T01:13:21.044Z,26.33
2019-01-30T01:14:55.826Z,28.73
2019-01-30T01:16:30.594Z,31.82
2019-01-30T01:18:05.780Z,31.50
2019-01-30T01:19:40.786Z,25.10
2019-01-30T01:21:15.578Z,25.70
2019-01-30T01:22:50.856Z,27.40
2019-01-30T01:24:25.657Z,32.67
2019-01-30T01:26:00.759Z,30.77
2019-01-30T01:27:35.869Z,24.63
2019-01-30T01:29:10.647Z,22.35
2019-01-30T01:30:45.732Z,23.77
2019-01-30T01:32:20.767Z,25.52
2019-01-30T01:33:55.546Z,25.25
2019-01-30T01:35:30.461Z,24.15
2019-01-30T01:37:05.334Z,28.35
2019-01-30T01:38:40.108Z,26.85
2019-01-30T01:40:16.036Z,28.32
2019-01-30T01:41:51.074Z,24.43
2019-01-30T01:43:25.842Z,26.77
2019-01-30T01:45:01.121Z,29.40
2019-01-30T01:46:36.167Z,25.62
2019-01-30T01:48:11.221Z,27.87
2019-01-30T01:49:45.990Z,29.37
2019-01-30T01:51:20.772Z,27.45
2019-01-30T01:52:55.565Z,28.42
2019-01-30T01:54:30.437Z,26.68
2019-01-30T01:56:05.318Z,32.90
2019-01-30T01:57:40.463Z,28.95
2019-01-30T01:59:15.494Z,31.25
2019-01-30T02:00:50.650Z,28.07
2019-01-30T02:02:25.712Z,28.38
2019-01-30T02:04:00.751Z,29.10
2019-01-30T02:05:35.606Z,31.60
2019-01-30T02:07:10.889Z,29.65
2019-01-30T02:08:45.926Z,26.23
2019-01-30T02:10:22.849Z,30.23
2019-01-30T02:11:57.890Z,33.18
2019-01-30T02:13:32.699Z,35.98
2019-01-30T02:15:11.201Z,33.53
2019-01-30T02:16:46.233Z,34.65
2019-01-30T02:18:21.532Z,33.38
2019-01-30T02:19:56.334Z,35.83
2019-01-30T02:21:31.098Z,38.30
2019-01-30T02:23:07.674Z,39.27
2019-01-30T02:24:42.475Z,39.55
2019-01-30T02:26:17.486Z,39.73
2019-01-30T02:27:52.270Z,34.25
2019-01-30T02:29:27.039Z,30.55
2019-01-30T02:31:02.155Z,32.75
2019-01-30T02:32:37.186Z,28.90
2019-01-30T02:34:12.226Z,35.33
2019-01-30T02:35:47.024Z,31.90
2019-01-30T02:37:21.808Z,31.93
2019-01-30T02:38:56.597Z,31.45
2019-01-30T02:40:31.380Z,34.23
2019-01-30T02:42:06.340Z,27.73
2019-01-30T02:43:41.385Z,29.63
2019-01-30T02:45:19.405Z,32.00
2019-01-30T02:46:54.297Z,29.23
2019-01-30T02:48:29.338Z,33.23
2019-01-30T02:50:05.259Z,33.25
2019-01-30T02:51:40.284Z,31.82
2019-01-30T02:53:15.095Z,33.98
2019-01-30T02:54:49.867Z,32.20
2019-01-30T02:56:24.916Z,26.73
2019-01-30T02:57:59.784Z,30.00
2019-01-30T02:59:34.574Z,31.82
2019-01-30T03:01:09.348Z,28.62
2019-01-30T03:02:44.124Z,33.23
2019-01-30T03:04:18.914Z,34.60
2019-01-30T03:05:53.954Z,27.70
2019-01-30T03:07:29.025Z,29.40
2019-01-30T03:09:05.358Z,32.55
2019-01-30T03:10:40.477Z,33.83
2019-01-30T03:12:15.577Z,33.20
2019-01-30T03:13:50.471Z,29.25
2019-01-30T03:15:26.170Z,28.60
2019-01-30T03:17:01.163Z,32.55
2019-01-30T03:18:36.194Z,28.30
2019-01-30T03:20:21.058Z,26.15
2019-01-30T03:21:56.156Z,26.97
2019-01-30T03:23:31.030Z,25.80
2019-01-30T03:25:07.308Z,29.32
2019-01-30T03:26:42.097Z,24.60
2019-01-30T03:28:16.877Z,26.80
2019-01-30T03:29:51.668Z,26.02
2019-01-30T03:31:26.818Z,25.12
2019-01-30T03:33:01.688Z,25.52
2019-01-30T03:34:36.476Z,24.55
2019-01-30T03:36:11.212Z,23.80
2019-01-30T03:37:46.232Z,26.17
2019-01-30T03:39:21.278Z,25.52
2019-01-30T03:40:56.478Z,24.87
2019-01-30T03:42:31.265Z,29.55
2019-01-30T03:44:06.291Z,35.17
2019-01-30T03:45:41.072Z,31.77
2019-01-30T03:47:16.116Z,27.45
2019-01-30T03:48:51.204Z,27.77
2019-01-30T03:50:26.366Z,28.70
2019-01-30T03:52:01.233Z,28.25
2019-01-30T03:53:36.027Z,27.65
2019-01-30T03:55:11.693Z,26.35
2019-01-30T03:56:46.489Z,28.73
2019-01-30T03:58:21.286Z,27.58
2019-01-30T03:59:56.331Z,23.57
2019-01-30T04:01:31.653Z,28.35
2019-01-30T04:03:08.017Z,26.37
2019-01-30T04:04:42.804Z,24.70
2019-01-30T04:06:17.739Z,23.75
2019-01-30T04:07:52.681Z,23.25
2019-01-30T04:09:27.485Z,25.50
2019-01-30T04:11:02.882Z,23.35
2019-01-30T04:12:37.668Z,21.90
2019-01-30T04:14:12.481Z,21.60
2019-01-30T04:15:47.523Z,26.68
2019-01-30T04:17:22.672Z,24.30
2019-01-30T04:18:57.590Z,22.13
2019-01-30T04:20:31.946Z,22.05
2019-01-30T04:22:06.447Z,23.35
2019-01-30T04:23:40.866Z,23.80
2019-01-30T04:25:15.684Z,22.13
2019-01-30T04:26:50.133Z,24.30
2019-01-30T04:28:24.504Z,23.38
2019-01-30T04:29:59.142Z,23.32
2019-01-30T04:31:38.269Z,22.62
2019-01-30T04:33:09.903Z,23.73
2019-01-30T04:34:44.278Z,25.32
2019-01-30T04:36:18.717Z,23.80
2019-01-30T04:37:53.082Z,23.75
2019-01-30T04:39:27.449Z,24.80
2019-01-30T04:41:02.148Z,19.98
2019-01-30T04:42:36.521Z,22.00
2019-01-30T04:44:10.881Z,23.47
2019-01-30T04:45:45.245Z,23.25
2019-01-30T04:47:19.945Z,23.47
2019-01-30T04:48:54.422Z,20.95
2019-01-30T04:50:29.247Z,24.35
2019-01-30T04:52:03.684Z,25.20
2019-01-30T04:53:38.298Z,24.07
2019-01-30T04:55:12.846Z,21.17
2019-01-30T04:56:47.472Z,24.60
2019-01-30T04:58:22.126Z,24.77
2019-01-30T04:59:56.572Z,24.85
2019-01-30T05:01:30.954Z,22.65
2019-01-30T05:03:05.747Z,23.77
2019-01-30T05:04:40.122Z,25.48
2019-01-30T05:06:14.657Z,22.70
2019-01-30T05:07:49.270Z,20.95
2019-01-30T05:09:23.774Z,22.45
2019-01-30T05:10:58.406Z,19.90
2019-01-30T05:12:33.021Z,24.75
2019-01-30T05:14:07.685Z,25.35
2019-01-30T05:15:42.051Z,21.95
2019-01-30T05:17:16.664Z,26.27
2019-01-30T05:18:51.517Z,20.40
2019-01-30T05:20:26.284Z,24.65
2019-01-30T05:22:01.199Z,21.95
2019-01-30T05:23:35.643Z,25.25
2019-01-30T05:25:10.377Z,20.02
2019-01-30T05:26:44.856Z,24.32
2019-01-30T05:28:19.211Z,22.73
2019-01-30T05:29:53.568Z,22.67
2019-01-30T05:31:28.014Z,21.85
2019-01-30T05:33:02.556Z,22.65
2019-01-30T05:34:37.179Z,21.17
2019-01-30T05:36:11.958Z,21.33
2019-01-30T05:37:46.412Z,19.82
2019-01-30T05:39:20.777Z,21.37
2019-01-30T05:40:55.458Z,17.85
2019-01-30T05:42:29.933Z,20.52
2019-01-30T05:44:04.393Z,21.95
2019-01-30T05:45:38.870Z,22.95
2019-01-30T05:47:13.508Z,21.37
2019-01-30T05:48:48.230Z,20.68
2019-01-30T05:50:23.069Z,21.50
2019-01-30T05:51:57.438Z,21.95
2019-01-30T05:53:32.230Z,19.30
2019-01-30T05:55:07.772Z,27.02
2019-01-30T05:56:42.150Z,22.02
2019-01-30T05:58:16.791Z,19.05
2019-01-30T05:59:51.145Z,18.62
2019-01-30T06:01:25.584Z,24.02
2019-01-30T06:03:00.074Z,23.85
2019-01-30T06:04:34.490Z,20.23
2019-01-30T06:06:08.878Z,24.10
2019-01-30T06:07:43.506Z,20.60
2019-01-30T06:09:18.239Z,21.40
2019-01-30T06:10:52.592Z,19.32
2019-01-30T06:12:27.218Z,19.82
2019-01-30T06:14:01.854Z,22.93
2019-01-30T06:15:36.280Z,22.58
2019-01-30T06:17:10.737Z,18.95
2019-01-30T06:18:45.374Z,23.02
2019-01-30T06:20:22.366Z,18.52
2019-01-30T06:21:56.825Z,20.12
2019-01-30T06:23:31.278Z,17.62
2019-01-30T06:25:06.320Z,20.95
2019-01-30T06:26:40.776Z,18.62
2019-01-30T06:28:15.392Z,18.32
2019-01-30T06:29:49.758Z,20.82
2019-01-30T06:31:24.117Z,18.62
2019-01-30T06:32:59.036Z,17.87
2019-01-30T06:34:33.398Z,16.93
2019-01-30T06:36:08.014Z,17.02
2019-01-30T06:37:42.779Z,18.07
2019-01-30T06:39:17.157Z,16.48
2019-01-30T06:40:51.634Z,21.42
2019-01-30T06:42:26.013Z,18.05
2019-01-30T06:44:00.879Z,15.80
2019-01-30T06:45:35.410Z,20.55
2019-01-30T06:47:09.882Z,19.45
2019-01-30T06:48:44.689Z,15.98
2019-01-30T06:50:19.139Z,18.40
2019-01-30T06:51:53.783Z,17.35
2019-01-30T06:53:28.469Z,19.67
2019-01-30T06:55:03.219Z,16.05
2019-01-30T06:56:37.650Z,18.07
2019-01-30T06:58:12.025Z,17.60
2019-01-30T06:59:46.395Z,14.30
2019-01-30T07:01:20.850Z,19.48
2019-01-30T07:02:56.917Z,17.37
2019-01-30T07:04:31.319Z,15.03
2019-01-30T07:06:07.871Z,14.83
2019-01-30T07:07:42.655Z,15.48
2019-01-30T07:09:17.106Z,16.52
2019-01-30T07:10:51.545Z,15.90
2019-01-30T07:12:25.932Z,14.73
2019-01-30T07:14:00.380Z,17.02
2019-01-30T07:15:35.098Z,16.15
2019-01-30T07:17:09.518Z,15.60
2019-01-30T07:18:43.958Z,16.23
2019-01-30T07:20:18.490Z,15.65
2019-01-30T07:21:53.235Z,17.73
2019-01-30T07:23:28.060Z,16.55
2019-01-30T07:25:03.089Z,18.00
2019-01-30T07:26:37.892Z,14.75
2019-01-30T07:28:12.934Z,16.67
2019-01-30T07:29:47.752Z,17.82
2019-01-30T07:31:22.688Z,15.28
2019-01-30T07:32:57.310Z,16.12
2019-01-30T07:34:31.727Z,15.15
2019-01-30T07:36:06.728Z,13.90
2019-01-30T07:37:42.109Z,14.43
2019-01-30T07:39:17.403Z,16.35
2019-01-30T07:40:52.455Z,13.30
2019-01-30T07:42:27.514Z,13.40
2019-01-30T07:44:02.558Z,16.87
2019-01-30T07:45:37.054Z,17.02
2019-01-30T07:47:11.792Z,16.00
2019-01-30T07:48:46.586Z,13.35
2019-01-30T07:50:21.775Z,14.78
2019-01-30T07:51:56.561Z,15.55
2019-01-30T07:53:31.374Z,17.32
2019-01-30T07:55:08.962Z,15.53
2019-01-30T07:56:43.762Z,13.95
2019-01-30T07:58:18.908Z,15.48
2019-01-30T07:59:53.713Z,16.67
2019-01-30T08:01:28.506Z,12.07
2019-01-30T08:03:03.442Z,12.13
2019-01-30T08:04:38.232Z,13.05
2019-01-30T08:06:13.432Z,12.43
2019-01-30T08:07:48.560Z,14.93
2019-01-30T08:09:23.370Z,15.83
2019-01-30T08:10:58.717Z,13.93
2019-01-30T08:12:33.857Z,16.52
2019-01-30T08:14:09.081Z,14.55
2019-01-30T08:15:43.960Z,11.48
2019-01-30T08:17:21.036Z,11.50
2019-01-30T08:18:55.323Z,13.53
2019-01-30T08:20:30.107Z,13.00
2019-01-30T08:22:05.241Z,13.72
2019-01-30T08:23:40.218Z,13.35
2019-01-30T08:25:18.176Z,13.35
2019-01-30T08:26:53.201Z,15.75
2019-01-30T08:28:28.071Z,15.98
2019-01-30T08:30:03.239Z,12.65
2019-01-30T08:31:38.564Z,13.00
2019-01-30T08:33:13.596Z,14.13
2019-01-30T08:34:48.851Z,13.85
2019-01-30T08:36:23.622Z,14.05
2019-01-30T08:37:59.087Z,11.78
2019-01-30T08:39:33.879Z,13.90
2019-01-30T08:41:08.964Z,15.45
2019-01-30T08:42:43.825Z,13.10
2019-01-30T08:44:18.641Z,11.88
2019-01-30T08:45:53.715Z,15.58
2019-01-30T08:47:28.491Z,12.40
2019-01-30T08:49:03.266Z,11.95
2019-01-30T08:50:38.124Z,13.45
2019-01-30T08:52:13.207Z,14.63
2019-01-30T08:53:48.452Z,11.08
2019-01-30T08:55:23.222Z,11.12
2019-01-30T08:56:58.109Z,13.05
2019-01-30T08:58:33.628Z,11.93
2019-01-30T09:00:12.661Z,12.73
2019-01-30T09:01:47.464Z,11.00
2019-01-30T09:03:22.331Z,11.95
2019-01-30T09:04:57.439Z,11.08
2019-01-30T09:06:31.845Z,12.50
2019-01-30T09:08:08.779Z,9.70
2019-01-30T09:09:42.426Z,12.35
2019-01-30T09:11:16.781Z,13.00
2019-01-30T09:12:51.946Z,12.20
2019-01-30T09:14:27.098Z,11.97
2019-01-30T09:16:02.315Z,10.65
2019-01-30T09:17:37.950Z,10.58
2019-01-30T09:19:12.939Z,11.60
2019-01-30T09:20:47.991Z,13.50
2019-01-30T09:22:23.030Z,10.48
2019-01-30T09:23:58.378Z,11.65
2019-01-30T09:25:33.233Z,9.45
2019-01-30T09:27:08.537Z,13.40
2019-01-30T09:28:43.876Z,10.00
2019-01-30T09:30:20.760Z,12.40
2019-01-30T09:31:55.201Z,9.35
2019-01-30T09:33:30.021Z,11.78
2019-01-30T09:35:05.744Z,10.43
2019-01-30T09:36:41.063Z,10.53
2019-01-30T09:38:15.844Z,9.00
2019-01-30T09:39:50.995Z,13.25
2019-01-30T09:41:25.799Z,10.05
2019-01-30T09:43:00.762Z,9.43
2019-01-30T09:44:35.531Z,8.55
2019-01-30T09:46:10.337Z,10.05
2019-01-30T09:47:45.218Z,8.63
2019-01-30T09:49:20.305Z,11.78
2019-01-30T09:50:55.699Z,10.45
2019-01-30T09:52:30.479Z,11.35
2019-01-30T09:54:05.663Z,10.18
2019-01-30T09:55:40.464Z,10.25
2019-01-30T09:57:15.546Z,10.38
2019-01-30T09:58:50.732Z,9.40
2019-01-30T10:00:29.848Z,10.38
2019-01-30T10:02:04.855Z,7.92
2019-01-30T10:03:39.685Z,11.10
2019-01-30T10:05:14.648Z,10.05
2019-01-30T10:06:49.464Z,11.43
2019-01-30T10:08:24.281Z,9.03
2019-01-30T10:09:59.408Z,10.82
2019-01-30T10:11:34.182Z,9.23
2019-01-30T10:13:09.922Z,9.60
2019-01-30T10:14:45.106Z,10.63
2019-01-30T10:16:19.902Z,10.18
2019-01-30T10:17:54.786Z,11.43
2019-01-30T10:19:29.590Z,10.88
2019-01-30T10:21:04.591Z,8.40
2019-01-30T10:22:39.636Z,9.80
2019-01-30T10:24:14.772Z,10.58
2019-01-30T10:25:49.567Z,11.03
2019-01-30T10:27:24.720Z,9.90
2019-01-30T10:28:59.588Z,13.05
2019-01-30T10:30:36.900Z,10.05
2019-01-30T10:32:11.772Z,9.25
2019-01-30T10:33:46.970Z,14.43
2019-01-30T10:35:22.190Z,11.08
2019-01-30T10:36:57.558Z,9.40
2019-01-30T10:38:32.667Z,9.40
2019-01-30T10:40:11.174Z,11.73
2019-01-30T10:41:46.232Z,9.98
2019-01-30T10:43:21.105Z,10.23
2019-01-30T10:44:55.893Z,8.78
2019-01-30T10:46:30.698Z,8.23
2019-01-30T10:48:05.628Z,10.05
2019-01-30T10:49:40.681Z,9.65
2019-01-30T10:51:15.949Z,10.18
2019-01-30T10:52:50.854Z,10.08
2019-01-30T10:54:25.821Z,8.78
2019-01-30T10:56:00.861Z,8.20
2019-01-30T10:57:36.217Z,10.93
2019-01-30T10:59:11.012Z,9.23
2019-01-30T11:00:49.627Z,9.08
2019-01-30T11:02:24.488Z,7.37
2019-01-30T11:03:59.477Z,8.25
2019-01-30T11:05:34.603Z,7.03
2019-01-30T11:07:09.378Z,7.67
2019-01-30T11:08:44.227Z,8.58
2019-01-30T11:10:19.520Z,7.70
2019-01-30T11:11:54.335Z,11.05
2019-01-30T11:13:29.107Z,8.35
2019-01-30T11:15:05.781Z,10.68
2019-01-30T11:16:40.673Z,10.50
2019-01-30T11:18:17.112Z,11.70
2019-01-30T11:19:52.271Z,10.65
2019-01-30T11:21:27.297Z,9.90
2019-01-30T11:23:02.461Z,9.75
2019-01-30T11:24:37.259Z,8.30
2019-01-30T11:26:12.045Z,10.40
2019-01-30T11:27:46.904Z,8.53
2019-01-30T11:29:21.969Z,8.25
2019-01-30T11:30:57.021Z,8.93
2019-01-30T11:32:32.009Z,10.13
2019-01-30T11:34:07.915Z,9.58
2019-01-30T11:35:42.890Z,9.50
2019-01-30T11:37:17.678Z,10.95
2019-01-30T11:38:52.472Z,10.48
2019-01-30T11:40:27.585Z,7.97
2019-01-30T11:42:02.973Z,11.00
2019-01-30T11:43:38.015Z,8.25
2019-01-30T11:45:28.971Z,11.90
2019-01-30T11:47:04.334Z,9.40
2019-01-30T11:48:39.372Z,8.98
2019-01-30T11:50:14.590Z,8.90
2019-01-30T11:51:49.377Z,10.68
2019-01-30T11:53:24.170Z,10.93
2019-01-30T11:54:59.063Z,12.03
2019-01-30T11:56:33.990Z,8.90
2019-01-30T11:58:09.140Z,9.10
2019-01-30T11:59:43.924Z,9.90
2019-01-30T12:01:18.796Z,7.80
2019-01-30T12:02:53.824Z,9.55
2019-01-30T12:04:28.709Z,14.10
2019-01-30T12:06:03.843Z,10.45
2019-01-30T12:11:11.358Z,9.65
2019-01-30T12:12:46.306Z,9.78
2019-01-30T12:14:21.566Z,9.20
2019-01-30T12:15:56.674Z,11.18
2019-01-30T12:17:31.499Z,10.72
2019-01-30T12:19:06.693Z,9.80
2019-01-30T12:20:41.833Z,10.50
2019-01-30T12:22:16.960Z,11.05
2019-01-30T12:23:52.038Z,10.03
2019-01-30T12:25:26.997Z,9.88
2019-01-30T12:27:01.795Z,12.65
2019-01-30T12:28:36.854Z,11.30
2019-01-30T12:30:18.986Z,10.70
2019-01-30T12:31:53.819Z,8.90
2019-01-30T12:33:28.688Z,8.58
2019-01-30T12:35:03.855Z,7.95
2019-01-30T12:36:38.903Z,10.00
2019-01-30T12:38:13.749Z,9.98
2019-01-30T12:39:49.037Z,10.82
2019-01-30T12:41:23.911Z,8.70
2019-01-30T12:42:58.701Z,11.40
2019-01-30T12:44:33.853Z,8.90
2019-01-30T12:46:08.987Z,9.38
2019-01-30T12:47:44.126Z,8.88
2019-01-30T12:49:19.180Z,10.50
2019-01-30T12:50:54.196Z,12.05
2019-01-30T12:52:29.848Z,11.08
2019-01-30T12:54:07.965Z,10.13
2019-01-30T12:55:47.983Z,9.18
2019-01-30T12:57:23.241Z,10.63
2019-01-30T12:58:58.300Z,14.30
2019-01-30T13:00:36.937Z,12.60
2019-01-30T13:02:13.792Z,10.75
2019-01-30T13:03:48.728Z,9.80
2019-01-30T13:05:26.036Z,10.43
2019-01-30T13:07:00.832Z,12.28
2019-01-30T13:08:36.599Z,15.60
2019-01-30T13:10:11.816Z,11.63
2019-01-30T13:11:46.990Z,11.93
2019-01-30T13:13:22.101Z,10.55
2019-01-30T13:14:57.639Z,10.28
2019-01-30T13:16:32.692Z,10.10
2019-01-30T13:18:18.092Z,10.20
2019-01-30T13:19:45.247Z,9.23
2019-01-30T13:21:20.036Z,10.70
2019-01-30T13:22:55.137Z,11.10
2019-01-30T13:24:29.930Z,11.43
2019-01-30T13:26:05.487Z,8.33
2019-01-30T13:27:40.785Z,10.58
2019-01-30T13:29:15.580Z,12.00
2019-01-30T13:30:50.850Z,12.03
2019-01-30T13:32:25.918Z,12.28
2019-01-30T13:34:00.751Z,10.48
2019-01-30T13:35:35.747Z,10.75
2019-01-30T13:37:13.264Z,9.03
2019-01-30T13:38:48.208Z,14.40
2019-01-30T13:40:30.197Z,10.63
2019-01-30T13:42:05.444Z,11.97
2019-01-30T13:43:40.251Z,11.05
2019-01-30T13:45:15.603Z,12.15
2019-01-30T13:46:51.234Z,12.60
2019-01-30T13:48:26.647Z,11.30
2019-01-30T13:50:01.449Z,11.05
2019-01-30T13:51:36.252Z,15.10
2019-01-30T13:53:11.238Z,11.75
2019-01-30T13:54:50.020Z,13.00
2019-01-30T13:56:24.804Z,11.70
2019-01-30T13:57:59.690Z,10.80
2019-01-30T13:59:35.179Z,13.62
2019-01-30T14:01:17.340Z,12.33
2019-01-30T14:02:48.417Z,11.57
2019-01-30T14:04:24.188Z,12.13
2019-01-30T14:06:00.450Z,14.35
2019-01-30T14:07:35.294Z,11.90
2019-01-30T14:09:11.206Z,11.88
2019-01-30T14:10:46.143Z,11.40
2019-01-30T14:12:21.186Z,13.62
2019-01-30T14:13:56.001Z,12.03
2019-01-30T14:15:31.252Z,15.10
2019-01-30T14:17:06.107Z,13.40
2019-01-30T14:18:40.929Z,14.18
2019-01-30T14:20:17.072Z,14.35
2019-01-30T14:21:52.143Z,15.30
2019-01-30T14:23:27.117Z,14.47
2019-01-30T14:25:02.237Z,15.68
2019-01-30T14:26:37.168Z,14.05
2019-01-30T14:28:12.294Z,16.10
2019-01-30T14:29:57.908Z,14.90
2019-01-30T14:31:23.867Z,16.10
2019-01-30T14:32:58.809Z,14.28
2019-01-30T14:34:34.100Z,14.45
2019-01-30T14:36:09.196Z,14.80
2019-01-30T14:37:44.619Z,16.60
2019-01-30T14:39:19.764Z,14.87
2019-01-30T14:40:54.635Z,14.13
2019-01-30T14:42:29.755Z,15.65
2019-01-30T14:44:05.539Z,15.30
2019-01-30T14:45:40.382Z,16.52
2019-01-30T14:47:21.308Z,18.60
2019-01-30T14:48:56.207Z,16.10
2019-01-30T14:50:30.950Z,15.03
2019-01-30T14:52:06.191Z,18.07
2019-01-30T14:53:41.138Z,16.45
2019-01-30T14:55:16.861Z,15.40
2019-01-30T14:56:52.052Z,17.92
2019-01-30T14:58:27.148Z,17.77
2019-01-30T15:00:02.002Z,17.52
2019-01-30T15:01:36.945Z,13.93
2019-01-30T15:03:12.033Z,14.30
2019-01-30T15:04:47.071Z,18.37
2019-01-30T15:06:22.018Z,18.82
2019-01-30T15:07:57.480Z,23.77
2019-01-30T15:09:32.619Z,17.17
2019-01-30T15:11:08.051Z,18.73
2019-01-30T15:12:43.114Z,17.35
2019-01-30T15:14:18.377Z,19.23
2019-01-30T15:15:53.472Z,19.90
2019-01-30T15:17:28.515Z,18.90
2019-01-30T15:19:04.188Z,18.48
2019-01-30T15:20:40.318Z,18.50
2019-01-30T15:22:15.043Z,15.98
2019-01-30T15:23:50.757Z,17.37
2019-01-30T15:25:26.984Z,16.77
2019-01-30T15:27:02.030Z,18.30
2019-01-30T15:30:38.563Z,16.52
2019-01-30T15:32:13.613Z,19.75
2019-01-30T15:33:48.831Z,17.37
2019-01-30T15:35:33.214Z,19.42
2019-01-30T15:37:00.546Z,17.65
2019-01-30T15:38:35.476Z,19.40
2019-01-30T15:40:13.170Z,17.15
2019-01-30T15:41:48.887Z,18.73
2019-01-30T15:43:24.459Z,18.52
2019-01-30T15:44:59.771Z,18.55
2019-01-30T15:46:35.137Z,17.57
2019-01-30T15:48:11.339Z,20.12
2019-01-30T15:49:46.701Z,19.32
2019-01-30T15:51:21.931Z,17.98
2019-01-30T15:52:59.125Z,18.35
2019-01-30T15:54:35.336Z,21.23
2019-01-30T15:56:11.297Z,19.02
2019-01-30T15:57:50.297Z,19.52
2019-01-30T15:59:25.543Z,20.43
2019-01-30T16:01:16.749Z,18.42
2019-01-30T16:02:52.330Z,21.30
2019-01-30T16:04:27.969Z,20.57
2019-01-30T16:06:03.318Z,16.93
2019-01-30T16:07:39.140Z,20.52
2019-01-30T16:09:14.258Z,19.05
2019-01-30T16:10:49.708Z,28.30
2019-01-30T16:12:25.088Z,20.90
2019-01-30T16:14:00.554Z,18.77
2019-01-30T16:15:49.621Z,19.55
2019-01-30T16:17:24.958Z,19.73
2019-01-30T16:19:00.502Z,20.20
2019-01-30T16:20:36.549Z,21.42
2019-01-30T16:22:12.446Z,17.23
2019-01-30T16:23:47.895Z,17.87
2019-01-30T16:25:24.463Z,19.23
2019-01-30T16:27:00.668Z,21.55
2019-01-30T16:28:36.857Z,19.00
2019-01-30T16:30:18.264Z,18.50
2019-01-30T16:31:54.728Z,21.17
2019-01-30T16:33:30.195Z,22.75
2019-01-30T16:35:06.779Z,19.85
2019-01-30T16:36:42.867Z,20.40
2019-01-30T16:38:18.910Z,19.57
2019-01-30T16:39:54.195Z,20.45
2019-01-30T16:41:30.112Z,20.12
2019-01-30T16:43:06.702Z,20.65
2019-01-30T16:44:42.253Z,21.25
2019-01-30T16:46:17.957Z,20.62
2019-01-30T16:47:53.672Z,21.82
2019-01-30T16:49:29.251Z,21.07
2019-01-30T16:51:04.571Z,21.12
2019-01-30T16:52:40.412Z,21.17
2019-01-30T16:54:16.783Z,19.87
2019-01-30T16:55:52.959Z,21.55
2019-01-30T16:57:28.470Z,24.47
2019-01-30T16:59:03.737Z,23.67
2019-01-30T17:00:39.302Z,23.02
2019-01-30T17:02:14.450Z,18.67
2019-01-30T17:03:50.169Z,20.40
2019-01-30T17:05:26.072Z,21.68
2019-01-30T17:07:02.011Z,21.62
2019-01-30T17:08:37.684Z,20.62
2019-01-30T17:10:14.131Z,21.90
2019-01-30T17:11:49.804Z,22.40
2019-01-30T17:13:24.909Z,21.80
2019-01-30T17:15:00.517Z,23.95
2019-01-30T17:16:35.776Z,26.55
2019-01-30T17:18:13.487Z,20.35
2019-01-30T17:19:48.940Z,19.60
2019-01-30T17:21:24.175Z,20.72
2019-01-30T17:22:59.391Z,18.73
2019-01-30T17:24:34.568Z,22.77
2019-01-30T17:26:09.979Z,21.87
2019-01-30T17:27:45.156Z,19.02
2019-01-30T17:29:22.664Z,19.40
2019-01-30T17:31:03.073Z,19.85
2019-01-30T17:32:37.839Z,17.77
2019-01-30T17:34:12.585Z,20.37
2019-01-30T17:35:48.486Z,17.32
2019-01-30T17:37:23.502Z,17.05
2019-01-30T17:38:58.561Z,18.02
2019-01-30T17:40:34.269Z,18.90
2019-01-30T17:42:09.438Z,20.15
2019-01-30T17:43:44.966Z,18.95
2019-01-30T17:45:20.238Z,25.62
2019-01-30T17:46:55.871Z,18.30
2019-01-30T17:48:31.280Z,20.10
2019-01-30T17:50:08.493Z,20.05
2019-01-30T17:51:43.754Z,21.05
2019-01-30T17:53:19.095Z,22.07
2019-01-30T17:54:56.506Z,20.97
2019-01-30T17:56:32.010Z,19.80
2019-01-30T17:58:07.438Z,20.27
2019-01-30T17:59:42.869Z,19.80
2019-01-30T18:01:18.363Z,21.12
2019-01-30T18:02:53.568Z,27.60
2019-01-30T18:04:29.041Z,21.42
2019-01-30T18:06:04.732Z,23.80
2019-01-30T18:07:40.423Z,22.17
2019-01-30T18:09:15.520Z,23.67
2019-01-30T18:10:50.921Z,22.00
2019-01-30T18:12:26.622Z,22.25
2019-01-30T18:14:01.638Z,20.23
2019-01-30T18:15:36.753Z,22.37
2019-01-30T18:17:12.469Z,20.55
2019-01-30T18:18:47.539Z,20.55
2019-01-30T18:20:23.127Z,20.82
2019-01-30T18:21:58.763Z,21.27
2019-01-30T18:23:33.921Z,21.50
2019-01-30T18:25:11.199Z,24.18
2019-01-30T18:26:46.447Z,19.70
2019-01-30T18:28:21.742Z,21.90
2019-01-30T18:29:56.838Z,22.02
2019-01-30T18:31:32.101Z,22.07
2019-01-30T18:33:08.129Z,23.10
2019-01-30T18:34:43.418Z,23.20
2019-01-30T18:36:19.011Z,26.25
2019-01-30T18:37:54.760Z,28.17
2019-01-30T18:39:30.219Z,21.62
2019-01-30T18:41:05.524Z,23.30
2019-01-30T18:42:41.381Z,24.12
2019-01-30T18:44:16.632Z,25.55
2019-01-30T18:45:52.147Z,25.30
2019-01-30T18:47:27.586Z,22.15
2019-01-30T18:49:02.744Z,24.30
2019-01-30T18:50:38.114Z,20.65
2019-01-30T18:52:13.801Z,26.00
2019-01-30T18:53:48.764Z,20.82
2019-01-30T18:55:24.358Z,22.37
2019-01-30T18:56:59.820Z,25.30
2019-01-30T18:58:34.893Z,23.47
2019-01-30T19:00:25.430Z,26.87
2019-01-30T19:02:00.560Z,28.40
2019-01-30T19:03:36.403Z,24.67
2019-01-30T19:05:12.056Z,25.43
2019-01-30T19:06:52.530Z,25.68
2019-01-30T19:08:24.309Z,21.35
2019-01-30T19:09:59.483Z,25.90
2019-01-30T19:11:34.555Z,22.13
2019-01-30T19:13:11.469Z,24.63
2019-01-30T19:14:46.932Z,23.98
2019-01-30T19:16:22.461Z,23.42
2019-01-30T19:17:57.741Z,21.77
2019-01-30T19:19:33.453Z,23.45
2019-01-30T19:21:09.989Z,25.12
2019-01-30T19:22:45.526Z,29.18
2019-01-30T19:24:21.120Z,28.30
2019-01-30T19:25:56.718Z,27.73
2019-01-30T19:27:32.632Z,22.07
2019-01-30T19:29:08.705Z,28.02
2019-01-30T19:30:45.159Z,25.75
2019-01-30T19:32:21.043Z,25.08
2019-01-30T19:33:56.348Z,27.00
2019-01-30T19:35:31.792Z,24.75
2019-01-30T19:37:06.847Z,25.95
2019-01-30T19:38:42.279Z,27.00
2019-01-30T19:40:19.142Z,26.05
2019-01-30T19:41:54.659Z,24.85
2019-01-30T19:43:30.322Z,27.52
2019-01-30T19:45:07.719Z,26.35
2019-01-30T19:46:43.139Z,26.50
2019-01-30T19:48:18.758Z,26.45
2019-01-30T19:49:54.225Z,27.77
2019-01-30T19:51:29.261Z,28.65
2019-01-30T19:53:05.820Z,28.25
2019-01-30T19:54:40.993Z,26.33
2019-01-30T19:56:16.916Z,27.35
2019-01-30T19:57:52.540Z,28.98
2019-01-30T19:59:27.980Z,25.27
2019-01-30T20:01:03.298Z,29.55
2019-01-30T20:02:38.470Z,30.25
2019-01-30T20:04:14.202Z,27.25
2019-01-30T20:05:50.964Z,28.07
2019-01-30T20:07:26.691Z,32.83
2019-01-30T20:09:02.291Z,27.67
2019-01-30T20:10:37.897Z,26.75
2019-01-30T20:12:13.086Z,28.17
2019-01-30T20:13:48.323Z,27.05
2019-01-30T20:15:24.236Z,27.60
2019-01-30T20:16:59.496Z,31.25
2019-01-30T20:18:34.561Z,27.13
2019-01-30T20:20:11.955Z,28.40
2019-01-30T20:21:47.349Z,30.75
2019-01-30T20:23:22.438Z,27.45
2019-01-30T20:24:57.842Z,32.08
2019-01-30T20:26:33.282Z,28.60
2019-01-30T20:28:08.479Z,29.82
2019-01-30T20:29:43.513Z,30.32
2019-01-30T20:31:19.389Z,30.97
2019-01-30T20:32:54.613Z,30.05
2019-01-30T20:34:30.056Z,32.00
2019-01-30T20:36:05.385Z,30.35